sensor_id;sensor_type;location;lat;lon;timestamp;P1;durP1;ratioP1;P2;durP2;ratioP2
31978;SDS011;18502;43.574;1.276;2024-01-15T00:00:16;8.40;;;4.65;;
31978;SDS011;18502;43.574;1.276;2024-01-15T00:02:42;9.98;;;4.90;;
31978;SDS011;18502;43.574;1.276;2024-01-15T00:05:08;9.80;;;4.57;;
31978;SDS011;18502;43.574;1.276;2024-01-15T00:07:33;11.43;;;4.82;;
31978;SDS011;18502;43.574;1.276;2024-01-15T00:10:00;10.48;;;5.57;;
31978;SDS011;18502;43.574;1.276;2024-01-15T00:12:26;15.20;;;6.07;;
31978;SDS011;18502;43.574;1.276;2024-01-15T00:14:52;13.50;;;5.60;;
31978;SDS011;18502;43.574;1.276;2024-01-15T00:17:18;13.23;;;5.90;;
31978;SDS011;18502;43.574;1.276;2024-01-15T00:19:44;13.80;;;5.82;;
31978;SDS011;18502;43.574;1.276;2024-01-15T00:22:09;11.65;;;5.80;;
31978;SDS011;18502;43.574;1.276;2024-01-15T00:24:35;9.98;;;5.18;;
31978;SDS011;18502;43.574;1.276;2024-01-15T00:27:00;10.38;;;5.85;;
31978;SDS011;18502;43.574;1.276;2024-01-15T00:29:26;13.82;;;6.80;;
31978;SDS011;18502;43.574;1.276;2024-01-15T00:31:52;13.63;;;6.53;;
31978;SDS011;18502;43.574;1.276;2024-01-15T00:34:17;15.13;;;6.47;;
31978;SDS011;18502;43.574;1.276;2024-01-15T00:36:43;12.38;;;6.47;;
31978;SDS011;18502;43.574;1.276;2024-01-15T00:39:08;12.98;;;6.47;;
31978;SDS011;18502;43.574;1.276;2024-01-15T00:41:35;14.90;;;6.22;;
31978;SDS011;18502;43.574;1.276;2024-01-15T00:44:01;13.10;;;6.00;;
31978;SDS011;18502;43.574;1.276;2024-01-15T00:46:28;12.13;;;6.20;;
31978;SDS011;18502;43.574;1.276;2024-01-15T00:48:53;16.35;;;7.45;;
31978;SDS011;18502;43.574;1.276;2024-01-15T00:51:19;15.55;;;6.53;;
31978;SDS011;18502;43.574;1.276;2024-01-15T00:53:45;11.45;;;5.90;;
31978;SDS011;18502;43.574;1.276;2024-01-15T00:56:10;17.08;;;7.55;;
31978;SDS011;18502;43.574;1.276;2024-01-15T00:58:36;13.02;;;7.25;;
31978;SDS011;18502;43.574;1.276;2024-01-15T01:01:02;14.45;;;6.18;;
31978;SDS011;18502;43.574;1.276;2024-01-15T01:03:27;19.88;;;7.78;;
31978;SDS011;18502;43.574;1.276;2024-01-15T01:05:53;16.75;;;6.97;;
31978;SDS011;18502;43.574;1.276;2024-01-15T01:08:19;9.90;;;6.43;;
31978;SDS011;18502;43.574;1.276;2024-01-15T01:10:44;13.57;;;6.65;;
31978;SDS011;18502;43.574;1.276;2024-01-15T01:13:10;14.75;;;8.48;;
31978;SDS011;18502;43.574;1.276;2024-01-15T01:15:36;17.20;;;8.43;;
31978;SDS011;18502;43.574;1.276;2024-01-15T01:18:02;21.20;;;8.35;;
31978;SDS011;18502;43.574;1.276;2024-01-15T01:20:28;22.42;;;8.95;;
31978;SDS011;18502;43.574;1.276;2024-01-15T01:22:53;17.48;;;9.40;;
31978;SDS011;18502;43.574;1.276;2024-01-15T01:25:19;17.25;;;8.60;;
31978;SDS011;18502;43.574;1.276;2024-01-15T01:27:45;17.00;;;7.80;;
31978;SDS011;18502;43.574;1.276;2024-01-15T01:30:10;15.88;;;8.73;;
31978;SDS011;18502;43.574;1.276;2024-01-15T01:32:36;24.10;;;9.48;;
31978;SDS011;18502;43.574;1.276;2024-01-15T01:35:02;23.38;;;9.25;;
31978;SDS011;18502;43.574;1.276;2024-01-15T01:37:28;23.45;;;10.30;;
31978;SDS011;18502;43.574;1.276;2024-01-15T01:39:53;17.88;;;10.23;;
31978;SDS011;18502;43.574;1.276;2024-01-15T01:42:19;27.73;;;11.98;;
31978;SDS011;18502;43.574;1.276;2024-01-15T01:44:45;22.27;;;10.35;;
31978;SDS011;18502;43.574;1.276;2024-01-15T01:47:12;22.20;;;11.13;;
31978;SDS011;18502;43.574;1.276;2024-01-15T01:49:39;24.60;;;11.43;;
31978;SDS011;18502;43.574;1.276;2024-01-15T01:52:05;29.98;;;11.63;;
31978;SDS011;18502;43.574;1.276;2024-01-15T01:54:34;24.52;;;10.68;;
31978;SDS011;18502;43.574;1.276;2024-01-15T01:57:02;17.50;;;9.98;;
31978;SDS011;18502;43.574;1.276;2024-01-15T01:59:29;30.70;;;10.50;;
31978;SDS011;18502;43.574;1.276;2024-01-15T02:01:57;26.85;;;11.25;;
31978;SDS011;18502;43.574;1.276;2024-01-15T02:04:23;18.17;;;9.52;;
31978;SDS011;18502;43.574;1.276;2024-01-15T02:06:50;20.25;;;10.23;;
31978;SDS011;18502;43.574;1.276;2024-01-15T02:09:16;20.08;;;10.60;;
31978;SDS011;18502;43.574;1.276;2024-01-15T02:11:43;24.50;;;11.45;;
31978;SDS011;18502;43.574;1.276;2024-01-15T02:14:11;17.60;;;9.38;;
31978;SDS011;18502;43.574;1.276;2024-01-15T02:16:37;17.38;;;10.13;;
31978;SDS011;18502;43.574;1.276;2024-01-15T02:19:02;19.25;;;11.57;;
31978;SDS011;18502;43.574;1.276;2024-01-15T02:21:28;37.05;;;14.98;;
31978;SDS011;18502;43.574;1.276;2024-01-15T02:23:54;37.08;;;18.42;;
31978;SDS011;18502;43.574;1.276;2024-01-15T02:26:20;27.48;;;13.50;;
31978;SDS011;18502;43.574;1.276;2024-01-15T02:28:47;28.13;;;12.65;;
31978;SDS011;18502;43.574;1.276;2024-01-15T02:31:13;30.70;;;14.65;;
31978;SDS011;18502;43.574;1.276;2024-01-15T02:33:38;38.92;;;17.42;;
31978;SDS011;18502;43.574;1.276;2024-01-15T02:36:04;36.40;;;16.83;;
31978;SDS011;18502;43.574;1.276;2024-01-15T02:38:30;39.28;;;17.42;;
31978;SDS011;18502;43.574;1.276;2024-01-15T02:40:56;24.25;;;12.43;;
31978;SDS011;18502;43.574;1.276;2024-01-15T02:43:22;27.52;;;13.73;;
31978;SDS011;18502;43.574;1.276;2024-01-15T02:45:47;29.80;;;12.23;;
31978;SDS011;18502;43.574;1.276;2024-01-15T02:48:13;19.67;;;11.25;;
31978;SDS011;18502;43.574;1.276;2024-01-15T02:50:39;25.20;;;13.23;;
31978;SDS011;18502;43.574;1.276;2024-01-15T02:53:04;21.35;;;12.07;;
31978;SDS011;18502;43.574;1.276;2024-01-15T02:55:30;19.15;;;10.60;;
31978;SDS011;18502;43.574;1.276;2024-01-15T02:57:56;24.85;;;11.70;;
31978;SDS011;18502;43.574;1.276;2024-01-15T03:00:21;25.42;;;13.85;;
31978;SDS011;18502;43.574;1.276;2024-01-15T03:02:47;20.30;;;12.63;;
31978;SDS011;18502;43.574;1.276;2024-01-15T03:05:15;26.73;;;14.23;;
31978;SDS011;18502;43.574;1.276;2024-01-15T03:07:41;19.33;;;11.73;;
31978;SDS011;18502;43.574;1.276;2024-01-15T03:10:07;23.15;;;12.23;;
31978;SDS011;18502;43.574;1.276;2024-01-15T03:12:33;22.75;;;12.52;;
31978;SDS011;18502;43.574;1.276;2024-01-15T03:14:59;22.13;;;13.00;;
31978;SDS011;18502;43.574;1.276;2024-01-15T03:17:24;20.48;;;12.45;;
31978;SDS011;18502;43.574;1.276;2024-01-15T03:19:50;22.05;;;13.30;;
31978;SDS011;18502;43.574;1.276;2024-01-15T03:22:16;25.95;;;12.85;;
31978;SDS011;18502;43.574;1.276;2024-01-15T03:24:42;27.48;;;13.30;;
31978;SDS011;18502;43.574;1.276;2024-01-15T03:27:08;27.58;;;12.65;;
31978;SDS011;18502;43.574;1.276;2024-01-15T03:29:34;25.13;;;12.63;;
31978;SDS011;18502;43.574;1.276;2024-01-15T03:32:00;28.33;;;14.18;;
31978;SDS011;18502;43.574;1.276;2024-01-15T03:34:25;23.70;;;12.48;;
31978;SDS011;18502;43.574;1.276;2024-01-15T03:36:51;25.67;;;13.18;;
31978;SDS011;18502;43.574;1.276;2024-01-15T03:39:16;31.05;;;16.58;;
31978;SDS011;18502;43.574;1.276;2024-01-15T03:41:42;38.10;;;18.38;;
31978;SDS011;18502;43.574;1.276;2024-01-15T03:44:08;36.05;;;18.30;;
31978;SDS011;18502;43.574;1.276;2024-01-15T03:46:33;36.25;;;18.67;;
31978;SDS011;18502;43.574;1.276;2024-01-15T03:48:59;31.63;;;17.42;;
31978;SDS011;18502;43.574;1.276;2024-01-15T03:51:24;49.55;;;21.92;;
31978;SDS011;18502;43.574;1.276;2024-01-15T03:53:50;53.38;;;21.20;;
31978;SDS011;18502;43.574;1.276;2024-01-15T03:56:16;32.22;;;16.92;;
31978;SDS011;18502;43.574;1.276;2024-01-15T03:58:42;29.00;;;16.30;;
31978;SDS011;18502;43.574;1.276;2024-01-15T04:01:08;30.02;;;15.35;;
31978;SDS011;18502;43.574;1.276;2024-01-15T04:03:35;28.10;;;16.63;;
31978;SDS011;18502;43.574;1.276;2024-01-15T04:06:01;29.00;;;16.83;;
31978;SDS011;18502;43.574;1.276;2024-01-15T04:08:27;26.15;;;15.20;;
31978;SDS011;18502;43.574;1.276;2024-01-15T04:10:52;26.58;;;15.80;;
31978;SDS011;18502;43.574;1.276;2024-01-15T04:13:18;23.73;;;13.77;;
31978;SDS011;18502;43.574;1.276;2024-01-15T04:15:43;20.15;;;13.05;;
31978;SDS011;18502;43.574;1.276;2024-01-15T04:18:09;21.45;;;13.00;;
31978;SDS011;18502;43.574;1.276;2024-01-15T04:20:35;23.02;;;13.52;;
31978;SDS011;18502;43.574;1.276;2024-01-15T04:23:00;23.58;;;13.07;;
31978;SDS011;18502;43.574;1.276;2024-01-15T04:25:26;20.52;;;12.95;;
31978;SDS011;18502;43.574;1.276;2024-01-15T04:27:52;28.83;;;15.05;;
31978;SDS011;18502;43.574;1.276;2024-01-15T04:30:17;20.10;;;12.75;;
31978;SDS011;18502;43.574;1.276;2024-01-15T04:32:43;28.50;;;13.63;;
31978;SDS011;18502;43.574;1.276;2024-01-15T04:35:09;26.75;;;15.13;;
31978;SDS011;18502;43.574;1.276;2024-01-15T04:37:34;33.92;;;15.20;;
31978;SDS011;18502;43.574;1.276;2024-01-15T04:40:00;23.13;;;13.48;;
31978;SDS011;18502;43.574;1.276;2024-01-15T04:42:26;35.40;;;16.73;;
31978;SDS011;18502;43.574;1.276;2024-01-15T04:44:51;30.65;;;15.93;;
31978;SDS011;18502;43.574;1.276;2024-01-15T04:47:17;37.15;;;15.95;;
31978;SDS011;18502;43.574;1.276;2024-01-15T04:49:42;37.72;;;18.27;;
31978;SDS011;18502;43.574;1.276;2024-01-15T04:52:08;25.23;;;13.63;;
31978;SDS011;18502;43.574;1.276;2024-01-15T04:54:35;37.72;;;17.02;;
31978;SDS011;18502;43.574;1.276;2024-01-15T04:57:01;35.28;;;17.25;;
31978;SDS011;18502;43.574;1.276;2024-01-15T04:59:27;43.22;;;18.52;;
31978;SDS011;18502;43.574;1.276;2024-01-15T05:01:53;43.63;;;20.92;;
31978;SDS011;18502;43.574;1.276;2024-01-15T05:04:19;37.75;;;18.38;;
31978;SDS011;18502;43.574;1.276;2024-01-15T05:06:45;41.30;;;17.80;;
31978;SDS011;18502;43.574;1.276;2024-01-15T05:09:11;41.63;;;19.45;;
31978;SDS011;18502;43.574;1.276;2024-01-15T05:11:38;44.17;;;18.05;;
31978;SDS011;18502;43.574;1.276;2024-01-15T05:14:04;39.80;;;20.13;;
31978;SDS011;18502;43.574;1.276;2024-01-15T05:16:29;43.38;;;21.95;;
31978;SDS011;18502;43.574;1.276;2024-01-15T05:18:55;42.63;;;20.58;;
31978;SDS011;18502;43.574;1.276;2024-01-15T05:21:21;27.85;;;16.92;;
31978;SDS011;18502;43.574;1.276;2024-01-15T05:23:46;27.35;;;15.80;;
31978;SDS011;18502;43.574;1.276;2024-01-15T05:26:12;33.72;;;16.70;;
31978;SDS011;18502;43.574;1.276;2024-01-15T05:28:38;40.42;;;20.25;;
31978;SDS011;18502;43.574;1.276;2024-01-15T05:31:05;43.75;;;20.63;;
31978;SDS011;18502;43.574;1.276;2024-01-15T05:33:31;30.95;;;16.35;;
31978;SDS011;18502;43.574;1.276;2024-01-15T05:35:56;37.85;;;18.73;;
31978;SDS011;18502;43.574;1.276;2024-01-15T05:38:23;31.27;;;16.13;;
31978;SDS011;18502;43.574;1.276;2024-01-15T05:40:49;29.05;;;16.75;;
31978;SDS011;18502;43.574;1.276;2024-01-15T05:43:15;39.83;;;17.52;;
31978;SDS011;18502;43.574;1.276;2024-01-15T05:45:42;30.15;;;15.32;;
31978;SDS011;18502;43.574;1.276;2024-01-15T05:48:09;28.52;;;16.58;;
31978;SDS011;18502;43.574;1.276;2024-01-15T05:50:35;39.03;;;18.02;;
31978;SDS011;18502;43.574;1.276;2024-01-15T05:53:01;28.58;;;15.15;;
31978;SDS011;18502;43.574;1.276;2024-01-15T05:55:27;28.92;;;16.55;;
31978;SDS011;18502;43.574;1.276;2024-01-15T05:57:53;24.63;;;13.77;;
31978;SDS011;18502;43.574;1.276;2024-01-15T06:00:18;30.25;;;15.80;;
31978;SDS011;18502;43.574;1.276;2024-01-15T06:02:44;27.58;;;16.20;;
31978;SDS011;18502;43.574;1.276;2024-01-15T06:05:10;24.17;;;14.40;;
31978;SDS011;18502;43.574;1.276;2024-01-15T06:07:35;24.95;;;14.60;;
31978;SDS011;18502;43.574;1.276;2024-01-15T06:10:02;24.02;;;16.75;;
31978;SDS011;18502;43.574;1.276;2024-01-15T06:12:28;24.42;;;15.05;;
31978;SDS011;18502;43.574;1.276;2024-01-15T06:14:54;20.55;;;12.77;;
31978;SDS011;18502;43.574;1.276;2024-01-15T06:17:19;21.52;;;13.32;;
31978;SDS011;18502;43.574;1.276;2024-01-15T06:19:45;20.30;;;12.38;;
31978;SDS011;18502;43.574;1.276;2024-01-15T06:22:11;36.35;;;17.85;;
31978;SDS011;18502;43.574;1.276;2024-01-15T06:24:36;22.98;;;13.52;;
31978;SDS011;18502;43.574;1.276;2024-01-15T06:27:02;23.20;;;14.18;;
31978;SDS011;18502;43.574;1.276;2024-01-15T06:29:27;22.90;;;14.15;;
31978;SDS011;18502;43.574;1.276;2024-01-15T06:31:53;27.52;;;16.95;;
31978;SDS011;18502;43.574;1.276;2024-01-15T06:34:19;28.00;;;16.30;;
31978;SDS011;18502;43.574;1.276;2024-01-15T06:36:45;26.30;;;16.17;;
31978;SDS011;18502;43.574;1.276;2024-01-15T06:39:10;30.30;;;17.92;;
31978;SDS011;18502;43.574;1.276;2024-01-15T06:41:36;43.22;;;20.85;;
31978;SDS011;18502;43.574;1.276;2024-01-15T06:44:09;35.38;;;20.63;;
31978;SDS011;18502;43.574;1.276;2024-01-15T06:46:36;30.70;;;18.65;;
31978;SDS011;18502;43.574;1.276;2024-01-15T06:49:01;32.45;;;21.45;;
31978;SDS011;18502;43.574;1.276;2024-01-15T06:51:27;44.13;;;27.40;;
31978;SDS011;18502;43.574;1.276;2024-01-15T06:53:54;32.65;;;23.20;;
31978;SDS011;18502;43.574;1.276;2024-01-15T06:56:20;36.28;;;22.42;;
31978;SDS011;18502;43.574;1.276;2024-01-15T06:58:45;39.92;;;26.33;;
31978;SDS011;18502;43.574;1.276;2024-01-15T07:01:11;35.05;;;24.05;;
31978;SDS011;18502;43.574;1.276;2024-01-15T07:03:37;45.38;;;25.38;;
31978;SDS011;18502;43.574;1.276;2024-01-15T07:06:03;29.73;;;19.75;;
31978;SDS011;18502;43.574;1.276;2024-01-15T07:08:29;46.90;;;22.15;;
31978;SDS011;18502;43.574;1.276;2024-01-15T07:10:55;29.08;;;17.95;;
31978;SDS011;18502;43.574;1.276;2024-01-15T07:13:20;38.03;;;20.27;;
31978;SDS011;18502;43.574;1.276;2024-01-15T07:15:46;46.20;;;23.20;;
31978;SDS011;18502;43.574;1.276;2024-01-15T07:18:12;46.13;;;22.33;;
31978;SDS011;18502;43.574;1.276;2024-01-15T07:20:37;58.97;;;24.55;;
31978;SDS011;18502;43.574;1.276;2024-01-15T07:23:03;126.20;;;43.38;;
31978;SDS011;18502;43.574;1.276;2024-01-15T07:25:29;99.68;;;39.15;;
31978;SDS011;18502;43.574;1.276;2024-01-15T07:27:54;79.45;;;32.65;;
31978;SDS011;18502;43.574;1.276;2024-01-15T07:30:20;64.40;;;27.95;;
31978;SDS011;18502;43.574;1.276;2024-01-15T07:32:47;52.90;;;24.77;;
31978;SDS011;18502;43.574;1.276;2024-01-15T07:35:14;43.35;;;21.30;;
31978;SDS011;18502;43.574;1.276;2024-01-15T07:37:40;72.93;;;26.63;;
31978;SDS011;18502;43.574;1.276;2024-01-15T07:40:06;122.85;;;31.42;;
31978;SDS011;18502;43.574;1.276;2024-01-15T07:42:33;126.10;;;31.40;;
31978;SDS011;18502;43.574;1.276;2024-01-15T07:45:00;73.03;;;26.38;;
31978;SDS011;18502;43.574;1.276;2024-01-15T07:47:25;90.93;;;24.58;;
31978;SDS011;18502;43.574;1.276;2024-01-15T07:49:52;81.22;;;24.85;;
31978;SDS011;18502;43.574;1.276;2024-01-15T07:52:18;111.68;;;28.45;;
31978;SDS011;18502;43.574;1.276;2024-01-15T07:54:44;82.25;;;26.40;;
31978;SDS011;18502;43.574;1.276;2024-01-15T07:57:10;54.42;;;25.20;;
31978;SDS011;18502;43.574;1.276;2024-01-15T07:59:35;222.27;;;38.67;;
31978;SDS011;18502;43.574;1.276;2024-01-15T08:02:01;165.50;;;38.33;;
31978;SDS011;18502;43.574;1.276;2024-01-15T08:04:27;232.73;;;43.78;;
31978;SDS011;18502;43.574;1.276;2024-01-15T08:06:53;149.98;;;39.35;;
31978;SDS011;18502;43.574;1.276;2024-01-15T08:09:18;198.98;;;45.25;;
31978;SDS011;18502;43.574;1.276;2024-01-15T08:11:44;218.15;;;49.70;;
31978;SDS011;18502;43.574;1.276;2024-01-15T08:14:10;216.18;;;45.75;;
31978;SDS011;18502;43.574;1.276;2024-01-15T08:16:37;194.45;;;44.10;;
31978;SDS011;18502;43.574;1.276;2024-01-15T08:19:03;85.55;;;32.10;;
31978;SDS011;18502;43.574;1.276;2024-01-15T08:21:28;222.45;;;41.25;;
31978;SDS011;18502;43.574;1.276;2024-01-15T08:23:57;75.53;;;31.13;;
31978;SDS011;18502;43.574;1.276;2024-01-15T08:26:28;64.38;;;31.50;;
31978;SDS011;18502;43.574;1.276;2024-01-15T08:28:54;147.45;;;37.63;;
31978;SDS011;18502;43.574;1.276;2024-01-15T08:31:19;156.82;;;36.85;;
31978;SDS011;18502;43.574;1.276;2024-01-15T08:33:45;78.40;;;35.53;;
31978;SDS011;18502;43.574;1.276;2024-01-15T08:36:11;135.23;;;36.42;;
31978;SDS011;18502;43.574;1.276;2024-01-15T08:38:37;72.80;;;30.52;;
31978;SDS011;18502;43.574;1.276;2024-01-15T08:41:03;104.82;;;33.40;;
31978;SDS011;18502;43.574;1.276;2024-01-15T08:43:29;61.13;;;27.98;;
31978;SDS011;18502;43.574;1.276;2024-01-15T08:45:56;141.30;;;40.35;;
31978;SDS011;18502;43.574;1.276;2024-01-15T08:48:22;149.07;;;41.42;;
31978;SDS011;18502;43.574;1.276;2024-01-15T08:50:47;87.90;;;30.77;;
31978;SDS011;18502;43.574;1.276;2024-01-15T08:53:13;48.92;;;26.33;;
31978;SDS011;18502;43.574;1.276;2024-01-15T08:55:39;45.22;;;25.20;;
31978;SDS011;18502;43.574;1.276;2024-01-15T08:58:07;41.00;;;22.98;;
31978;SDS011;18502;43.574;1.276;2024-01-15T09:00:33;33.08;;;20.73;;
31978;SDS011;18502;43.574;1.276;2024-01-15T09:02:59;45.47;;;22.63;;
31978;SDS011;18502;43.574;1.276;2024-01-15T09:05:24;39.28;;;21.90;;
31978;SDS011;18502;43.574;1.276;2024-01-15T09:07:50;35.05;;;19.60;;
31978;SDS011;18502;43.574;1.276;2024-01-15T09:10:17;30.58;;;17.55;;
31978;SDS011;18502;43.574;1.276;2024-01-15T09:12:43;29.55;;;18.52;;
31978;SDS011;18502;43.574;1.276;2024-01-15T09:15:09;29.02;;;18.23;;
31978;SDS011;18502;43.574;1.276;2024-01-15T09:17:35;27.13;;;16.58;;
31978;SDS011;18502;43.574;1.276;2024-01-15T09:20:00;31.17;;;17.08;;
31978;SDS011;18502;43.574;1.276;2024-01-15T09:22:26;30.10;;;18.27;;
31978;SDS011;18502;43.574;1.276;2024-01-15T09:24:52;32.58;;;19.85;;
31978;SDS011;18502;43.574;1.276;2024-01-15T09:27:18;25.50;;;17.02;;
31978;SDS011;18502;43.574;1.276;2024-01-15T09:29:43;26.52;;;17.20;;
31978;SDS011;18502;43.574;1.276;2024-01-15T09:32:11;27.83;;;17.13;;
31978;SDS011;18502;43.574;1.276;2024-01-15T09:34:37;33.55;;;19.63;;
31978;SDS011;18502;43.574;1.276;2024-01-15T09:37:03;28.88;;;18.60;;
31978;SDS011;18502;43.574;1.276;2024-01-15T09:39:30;39.92;;;21.67;;
31978;SDS011;18502;43.574;1.276;2024-01-15T09:41:57;41.95;;;21.38;;
31978;SDS011;18502;43.574;1.276;2024-01-15T09:44:23;55.45;;;28.63;;
31978;SDS011;18502;43.574;1.276;2024-01-15T09:46:49;32.53;;;19.45;;
31978;SDS011;18502;43.574;1.276;2024-01-15T09:49:16;39.75;;;21.90;;
31978;SDS011;18502;43.574;1.276;2024-01-15T09:51:42;38.03;;;20.92;;
31978;SDS011;18502;43.574;1.276;2024-01-15T09:54:09;23.88;;;15.38;;
31978;SDS011;18502;43.574;1.276;2024-01-15T09:56:35;26.92;;;17.17;;
31978;SDS011;18502;43.574;1.276;2024-01-15T09:59:02;33.15;;;19.23;;
31978;SDS011;18502;43.574;1.276;2024-01-15T10:01:29;37.08;;;20.13;;
31978;SDS011;18502;43.574;1.276;2024-01-15T10:03:57;33.78;;;19.40;;
31978;SDS011;18502;43.574;1.276;2024-01-15T10:06:23;28.58;;;18.70;;
31978;SDS011;18502;43.574;1.276;2024-01-15T10:08:52;28.02;;;17.15;;
31978;SDS011;18502;43.574;1.276;2024-01-15T10:11:19;24.67;;;16.13;;
31978;SDS011;18502;43.574;1.276;2024-01-15T10:13:44;31.90;;;19.17;;
31978;SDS011;18502;43.574;1.276;2024-01-15T10:16:11;34.55;;;20.80;;
31978;SDS011;18502;43.574;1.276;2024-01-15T10:18:37;32.75;;;21.00;;
31978;SDS011;18502;43.574;1.276;2024-01-15T10:21:04;49.92;;;21.70;;
31978;SDS011;18502;43.574;1.276;2024-01-15T10:23:32;31.92;;;19.33;;
31978;SDS011;18502;43.574;1.276;2024-01-15T10:25:58;31.90;;;18.70;;
31978;SDS011;18502;43.574;1.276;2024-01-15T10:28:25;32.03;;;19.02;;
31978;SDS011;18502;43.574;1.276;2024-01-15T10:30:52;32.08;;;19.25;;
31978;SDS011;18502;43.574;1.276;2024-01-15T10:33:21;26.60;;;18.38;;
31978;SDS011;18502;43.574;1.276;2024-01-15T10:35:50;32.72;;;21.27;;
31978;SDS011;18502;43.574;1.276;2024-01-15T10:38:24;38.45;;;21.95;;
31978;SDS011;18502;43.574;1.276;2024-01-15T10:40:53;32.75;;;19.00;;
31978;SDS011;18502;43.574;1.276;2024-01-15T10:43:20;30.35;;;20.63;;
31978;SDS011;18502;43.574;1.276;2024-01-15T10:45:47;31.02;;;20.08;;
31978;SDS011;18502;43.574;1.276;2024-01-15T10:48:16;29.95;;;19.88;;
31978;SDS011;18502;43.574;1.276;2024-01-15T10:50:44;32.42;;;20.75;;
31978;SDS011;18502;43.574;1.276;2024-01-15T10:53:11;34.65;;;22.10;;
31978;SDS011;18502;43.574;1.276;2024-01-15T10:55:38;36.83;;;21.98;;
31978;SDS011;18502;43.574;1.276;2024-01-15T10:58:06;27.67;;;18.95;;
31978;SDS011;18502;43.574;1.276;2024-01-15T11:00:33;30.13;;;20.33;;
31978;SDS011;18502;43.574;1.276;2024-01-15T11:03:00;32.95;;;21.30;;
31978;SDS011;18502;43.574;1.276;2024-01-15T11:05:27;25.83;;;19.20;;
31978;SDS011;18502;43.574;1.276;2024-01-15T11:07:56;29.75;;;19.65;;
31978;SDS011;18502;43.574;1.276;2024-01-15T11:10:37;36.15;;;21.05;;
31978;SDS011;18502;43.574;1.276;2024-01-15T11:13:53;32.70;;;21.45;;
31978;SDS011;18502;43.574;1.276;2024-01-15T11:16:10;31.70;;;22.33;;
31978;SDS011;18502;43.574;1.276;2024-01-15T11:21:25;40.03;;;24.48;;
31978;SDS011;18502;43.574;1.276;2024-01-15T11:23:59;39.55;;;25.52;;
31978;SDS011;18502;43.574;1.276;2024-01-15T11:28:59;35.08;;;22.23;;
31978;SDS011;18502;43.574;1.276;2024-01-15T11:34:12;39.90;;;25.17;;
31978;SDS011;18502;43.574;1.276;2024-01-15T11:37:20;32.72;;;21.25;;
31978;SDS011;18502;43.574;1.276;2024-01-15T11:44:22;23.92;;;17.75;;
31978;SDS011;18502;43.574;1.276;2024-01-15T11:47:01;22.08;;;15.63;;
31978;SDS011;18502;43.574;1.276;2024-01-15T11:52:34;27.13;;;16.70;;
31978;SDS011;18502;43.574;1.276;2024-01-15T11:57:52;27.63;;;17.85;;
31978;SDS011;18502;43.574;1.276;2024-01-15T12:00:19;25.70;;;17.98;;
31978;SDS011;18502;43.574;1.276;2024-01-15T12:02:48;22.98;;;16.50;;
31978;SDS011;18502;43.574;1.276;2024-01-15T12:05:16;27.40;;;18.98;;
31978;SDS011;18502;43.574;1.276;2024-01-15T12:07:45;28.75;;;19.48;;
31978;SDS011;18502;43.574;1.276;2024-01-15T12:10:13;27.15;;;19.08;;
31978;SDS011;18502;43.574;1.276;2024-01-15T12:15:11;31.27;;;19.58;;
31978;SDS011;18502;43.574;1.276;2024-01-15T12:17:37;26.73;;;18.10;;
31978;SDS011;18502;43.574;1.276;2024-01-15T12:20:04;27.65;;;18.15;;
31978;SDS011;18502;43.574;1.276;2024-01-15T12:22:30;25.23;;;16.92;;
31978;SDS011;18502;43.574;1.276;2024-01-15T12:24:55;25.17;;;17.52;;
31978;SDS011;18502;43.574;1.276;2024-01-15T12:27:22;21.95;;;16.50;;
31978;SDS011;18502;43.574;1.276;2024-01-15T12:29:49;21.98;;;15.43;;
31978;SDS011;18502;43.574;1.276;2024-01-15T12:32:14;28.20;;;19.40;;
31978;SDS011;18502;43.574;1.276;2024-01-15T12:34:40;30.60;;;21.77;;
31978;SDS011;18502;43.574;1.276;2024-01-15T12:37:09;25.30;;;17.48;;
31978;SDS011;18502;43.574;1.276;2024-01-15T12:39:36;24.02;;;17.35;;
31978;SDS011;18502;43.574;1.276;2024-01-15T12:42:02;21.40;;;15.80;;
31978;SDS011;18502;43.574;1.276;2024-01-15T12:44:28;22.73;;;15.80;;
31978;SDS011;18502;43.574;1.276;2024-01-15T12:46:54;22.05;;;14.20;;
31978;SDS011;18502;43.574;1.276;2024-01-15T12:49:20;20.05;;;14.80;;
31978;SDS011;18502;43.574;1.276;2024-01-15T12:51:52;23.48;;;16.70;;
31978;SDS011;18502;43.574;1.276;2024-01-15T12:54:24;23.85;;;16.98;;
31978;SDS011;18502;43.574;1.276;2024-01-15T12:56:51;21.83;;;16.40;;
31978;SDS011;18502;43.574;1.276;2024-01-15T12:59:17;31.20;;;23.05;;
31978;SDS011;18502;43.574;1.276;2024-01-15T13:01:43;26.83;;;18.85;;
31978;SDS011;18502;43.574;1.276;2024-01-15T13:04:09;23.95;;;17.38;;
31978;SDS011;18502;43.574;1.276;2024-01-15T13:06:35;26.30;;;18.42;;
31978;SDS011;18502;43.574;1.276;2024-01-15T13:09:02;25.00;;;17.85;;
31978;SDS011;18502;43.574;1.276;2024-01-15T13:11:30;24.27;;;17.95;;
31978;SDS011;18502;43.574;1.276;2024-01-15T13:13:57;29.63;;;19.83;;
31978;SDS011;18502;43.574;1.276;2024-01-15T13:16:22;24.27;;;18.52;;
31978;SDS011;18502;43.574;1.276;2024-01-15T13:18:48;27.30;;;18.85;;
31978;SDS011;18502;43.574;1.276;2024-01-15T13:21:15;25.45;;;18.27;;
31978;SDS011;18502;43.574;1.276;2024-01-15T13:23:40;27.52;;;19.63;;
31978;SDS011;18502;43.574;1.276;2024-01-15T13:26:06;29.95;;;20.02;;
31978;SDS011;18502;43.574;1.276;2024-01-15T13:28:32;23.85;;;17.65;;
31978;SDS011;18502;43.574;1.276;2024-01-15T13:30:59;24.05;;;16.55;;
31978;SDS011;18502;43.574;1.276;2024-01-15T13:33:25;21.35;;;16.13;;
31978;SDS011;18502;43.574;1.276;2024-01-15T13:35:50;23.38;;;16.60;;
31978;SDS011;18502;43.574;1.276;2024-01-15T13:38:16;25.85;;;17.30;;
31978;SDS011;18502;43.574;1.276;2024-01-15T13:40:42;22.88;;;14.52;;
31978;SDS011;18502;43.574;1.276;2024-01-15T13:43:10;19.75;;;13.73;;
31978;SDS011;18502;43.574;1.276;2024-01-15T13:45:36;22.30;;;14.57;;
31978;SDS011;18502;43.574;1.276;2024-01-15T13:48:02;22.35;;;14.85;;
31978;SDS011;18502;43.574;1.276;2024-01-15T13:50:33;20.58;;;13.18;;
31978;SDS011;18502;43.574;1.276;2024-01-15T13:53:02;17.70;;;11.38;;
31978;SDS011;18502;43.574;1.276;2024-01-15T13:55:31;19.33;;;12.03;;
31978;SDS011;18502;43.574;1.276;2024-01-15T13:57:57;14.30;;;9.68;;
31978;SDS011;18502;43.574;1.276;2024-01-15T14:00:22;15.02;;;10.25;;
31978;SDS011;18502;43.574;1.276;2024-01-15T14:02:48;13.93;;;9.18;;
31978;SDS011;18502;43.574;1.276;2024-01-15T14:05:14;11.07;;;7.55;;
31978;SDS011;18502;43.574;1.276;2024-01-15T14:07:40;8.95;;;5.75;;
31978;SDS011;18502;43.574;1.276;2024-01-15T14:10:06;9.38;;;5.45;;
31978;SDS011;18502;43.574;1.276;2024-01-15T14:12:33;8.50;;;5.07;;
31978;SDS011;18502;43.574;1.276;2024-01-15T14:14:59;5.82;;;4.50;;
31978;SDS011;18502;43.574;1.276;2024-01-15T14:17:28;5.88;;;4.50;;
31978;SDS011;18502;43.574;1.276;2024-01-15T14:19:54;5.80;;;4.43;;
31978;SDS011;18502;43.574;1.276;2024-01-15T14:22:20;6.78;;;4.15;;
31978;SDS011;18502;43.574;1.276;2024-01-15T14:24:45;4.90;;;3.83;;
31978;SDS011;18502;43.574;1.276;2024-01-15T14:27:11;5.53;;;3.60;;
31978;SDS011;18502;43.574;1.276;2024-01-15T14:29:36;9.95;;;6.03;;
31978;SDS011;18502;43.574;1.276;2024-01-15T14:32:03;10.35;;;6.57;;
31978;SDS011;18502;43.574;1.276;2024-01-15T14:34:29;12.82;;;7.20;;
31978;SDS011;18502;43.574;1.276;2024-01-15T14:36:55;7.63;;;3.85;;
31978;SDS011;18502;43.574;1.276;2024-01-15T14:39:21;5.00;;;3.03;;